Hlavní strana
METAR-TAF:

METAR-TAF

Letiště :

Mikkeli, Finsko

zeměpisná šířka: 61-44N, zeměpisná délka: 027-18E, výška: 138 m

Aktuální stav počasí

Zpráva byla vytvořena před 10 minutami, v 19:20 UTC
Východní vítr 11 kt
Teplota -3°C
Vlhkost vzduchu 93%
Tlak 992 hPa
Viditelnost: 9000 m
Zataženo ve výšce 600 ft

METAR: EFMI 221920Z AUTO 10011KT 9000 OVC006 M03/M04 Q0992

Čas: 21:30 (19:30 UTC)


TAF: chybějící

Stav a předpovědi počasí z více než 4 000 letišť (zprávy METAR a TAF).

Červené a žluté tečky na mapě představují dostupné meteorologické stanice.

Když kurzor umístíte na tečku, zobrazí se název stanice.

Pak kliknutím zobrazíte stav a předpověď počasí.

Chcete-li změnit mapu, kliknutím na zelené tlačítko se znaménkem +mapu přiblížíte, kliknutím na zelené tlačítko se znaménkem – mapu oddálíte a kliknutím na zelené šipky přejdete na sousední mapy.


METAR-TAF: